Time;durP1;ratioP1;P1;durP2;ratioP2;P2;SDS_P1;SDS_P2;PMS_P1;PMS_P2;Temp;Humidity;BMP_temperature;BMP_pressure;BME280_temperature;BME280_humidity;BME280_pressure;Samples;Min_cycle;Max_cycle;Signal;HPM_P1;HPM_P2
2022/06/06 04:00:36;;;;;;;6.10;5.60;;;15.80;99.90;;;;;;5966309;23;20485;-63
2022/06/06 04:03:05;;;;;;;5.83;5.43;;;15.80;99.90;;;;;;5017718;28;20438;-64
2022/06/06 04:05:35;;;;;;;6.30;5.80;;;15.80;99.90;;;;;;5016524;28;20484;-63
2022/06/06 04:08:02;;;;;;;6.40;5.90;;;15.90;99.90;;;;;;5015566;28;20994;-63
2022/06/06 04:10:38;;;;;;;6.27;5.67;;;15.90;99.90;;;;;;5015380;28;20457;-63
2022/06/06 04:13:15;;;;;;;5.87;5.20;;;16.00;99.90;;;;;;5015432;28;20444;-63
2022/06/06 04:15:53;;;;;;;6.30;5.80;;;16.00;99.90;;;;;;5015255;28;20832;-64
2022/06/06 04:18:31;;;;;;;6.50;6.00;;;16.10;99.90;;;;;;5015338;28;20461;-63
2022/06/06 04:21:05;;;;;;;6.90;6.40;;;16.10;99.90;;;;;;5015284;28;20546;-63
2022/06/06 04:23:52;;;;;;;8.90;5.83;;;16.10;99.90;;;;;;5015251;28;20868;-64
2022/06/06 04:26:28;;;;;;;5.73;5.27;;;16.10;99.90;;;;;;5015176;28;20441;-64
2022/06/06 04:29:06;;;;;;;5.97;5.30;;;16.20;99.90;;;;;;5015125;28;20444;-64
2022/06/06 04:31:44;;;;;;;6.80;5.90;;;16.30;99.90;;;;;;5015114;28;20492;-64
2022/06/06 04:34:17;;;;;;;7.00;6.00;;;16.30;99.90;;;;;;5015126;28;20802;-63
2022/06/06 04:36:51;;;;;;;6.67;6.07;;;16.30;99.90;;;;;;5015076;28;20498;-64
2022/06/06 04:39:24;;;;;;;6.60;6.00;;;16.30;99.90;;;;;;5014890;28;20465;-64
2022/06/06 04:41:56;;;;;;;8.23;6.80;;;16.40;99.90;;;;;;5014936;28;20473;-64
2022/06/06 04:44:33;;;;;;;6.80;6.07;;;16.40;99.90;;;;;;5014886;28;20535;-63
2022/06/06 04:47:08;;;;;;;6.30;5.90;;;16.50;99.90;;;;;;5014767;28;20445;-64
2022/06/06 04:49:36;;;;;;;6.60;6.00;;;16.50;99.90;;;;;;5014875;28;20436;-63
2022/06/06 04:52:04;;;;;;;6.37;5.97;;;16.60;99.90;;;;;;5014638;28;20472;-63
2022/06/06 04:54:32;;;;;;;7.03;5.60;;;16.70;99.90;;;;;;5014656;28;20480;-64
2022/06/06 04:57:01;;;;;;;7.33;6.13;;;16.70;99.90;;;;;;5014624;28;20453;-63
2022/06/06 04:59:31;;;;;;;6.57;6.07;;;16.80;99.90;;;;;;5014475;28;20999;-63
2022/06/06 05:02:02;;;;;;;9.43;6.67;;;16.80;99.90;;;;;;5014055;28;20484;-64
2022/06/06 05:04:29;;;;;;;6.40;5.90;;;16.90;99.90;;;;;;5014642;28;20441;-64
2022/06/06 05:07:20;;;;;;;6.40;5.97;;;16.90;99.90;;;;;;5014458;28;20503;-63
2022/06/06 05:10:08;;;;;;;6.70;6.20;;;17.00;99.90;;;;;;5013958;28;20820;-64
2022/06/06 05:13:01;;;;;;;6.83;6.37;;;17.10;99.90;;;;;;5014328;28;20473;-64
2022/06/06 05:15:42;;;;;;;7.20;6.70;;;17.10;99.90;;;;;;5007078;28;20532;-63
2022/06/06 05:18:24;;;;;;;6.10;5.60;;;17.20;99.90;;;;;;5014235;28;20437;-64
2022/06/06 05:21:08;;;;;;;6.80;6.10;;;17.30;99.90;;;;;;5014244;28;20475;-63
2022/06/06 05:23:49;;;;;;;5.80;5.33;;;17.50;99.90;;;;;;5014240;28;20492;-63
2022/06/06 05:26:29;;;;;;;5.87;5.47;;;17.70;99.90;;;;;;5014298;28;20802;-63
2022/06/06 05:29:19;;;;;;;5.10;4.70;;;17.90;99.90;;;;;;5014202;28;20440;-63
2022/06/06 05:32:02;;;;;;;5.97;5.37;;;18.30;99.90;;;;;;5013930;28;20483;-63
2022/06/06 05:34:37;;;;;;;5.00;4.60;;;18.50;99.90;;;;;;5014116;28;20436;-63
2022/06/06 05:37:15;;;;;;;5.17;4.77;;;18.60;99.90;;;;;;5014066;28;20432;-63
2022/06/06 05:39:55;;;;;;;5.33;4.87;;;18.70;99.90;;;;;;5013690;28;20460;-63
2022/06/06 05:42:33;;;;;;;4.63;4.23;;;18.80;99.90;;;;;;5013841;28;20473;-62
2022/06/06 05:45:11;;;;;;;5.13;4.77;;;18.90;99.90;;;;;;5014141;28;20448;-63
2022/06/06 05:47:44;;;;;;;5.63;5.13;;;18.90;99.90;;;;;;5013878;28;20437;-63
2022/06/06 05:50:25;;;;;;;4.77;4.47;;;18.90;99.90;;;;;;5013850;28;20456;-63
2022/06/06 05:53:11;;;;;;;5.50;5.10;;;19.00;99.90;;;;;;5013994;28;20829;-63
2022/06/06 05:55:56;;;;;;;5.40;4.90;;;19.00;99.90;;;;;;5014282;28;20440;-63
2022/06/06 05:58:41;;;;;;;5.07;4.77;;;19.10;99.90;;;;;;5013860;28;20443;-63
2022/06/06 06:01:25;;;;;;;5.40;5.10;;;19.20;99.90;;;;;;5016300;28;20978;-63
2022/06/06 06:04:18;;;;;;;4.30;4.00;;;19.30;99.90;;;;;;5017356;28;20464;-63
2022/06/06 06:06:55;;;;;;;4.70;4.40;;;19.50;99.90;;;;;;5017235;28;20432;-63
2022/06/06 06:09:55;;;;;;;4.87;4.57;;;19.70;99.90;;;;;;5015631;28;20429;-63
2022/06/06 06:12:46;;;;;;;9.40;4.50;;;19.80;99.90;;;;;;5014163;28;20476;-63
2022/06/06 06:15:28;;;;;;;4.47;4.17;;;19.90;99.90;;;;;;5013561;28;20448;-63
2022/06/06 06:17:57;;;;;;;6.37;4.73;;;20.10;99.90;;;;;;5013834;28;20441;-63
2022/06/06 06:20:26;;;;;;;4.93;4.53;;;20.10;99.90;;;;;;5013216;28;21009;-63
2022/06/06 06:23:00;;;;;;;5.80;4.63;;;20.30;99.90;;;;;;5017636;28;20460;-63
2022/06/06 06:25:27;;;;;;;5.53;5.13;;;20.30;99.90;;;;;;5017448;28;20443;-63
2022/06/06 06:27:59;;;;;;;7.80;5.37;;;20.20;99.90;;;;;;5017432;28;20510;-63
2022/06/06 06:30:30;;;;;;;7.80;5.20;;;20.20;99.90;;;;;;5017294;28;20440;-63
2022/06/06 06:33:11;;;;;;;5.17;4.67;;;20.30;99.90;;;;;;5017278;28;20464;-63
2022/06/06 06:35:50;;;;;;;5.33;4.83;;;20.40;99.90;;;;;;5017278;28;20539;-63
2022/06/06 06:38:29;;;;;;;5.17;4.67;;;20.50;99.90;;;;;;5017068;28;20911;-63
2022/06/06 06:41:03;;;;;;;4.60;4.20;;;20.60;99.90;;;;;;5017008;28;20523;-64
2022/06/06 06:43:53;;;;;;;4.40;4.00;;;20.90;99.90;;;;;;5017313;28;20811;-63
2022/06/06 06:46:26;;;;;;;6.27;4.43;;;21.10;99.90;;;;;;5017038;28;20436;-62
2022/06/06 06:49:07;;;;;;;4.47;4.20;;;21.40;99.90;;;;;;5017445;28;20843;-63
2022/06/06 06:51:43;;;;;;;5.10;4.10;;;21.60;99.90;;;;;;5017043;28;20552;-64
2022/06/06 06:54:24;;;;;;;4.93;4.60;;;21.80;99.90;;;;;;5017020;28;20447;-63
2022/06/06 06:57:11;;;;;;;4.27;4.00;;;22.00;99.90;;;;;;5028155;28;20437;-64
2022/06/06 06:59:53;;;;;;;4.53;4.23;;;22.20;99.90;;;;;;5026955;28;20563;-63
2022/06/06 07:11:30;;;;;;;5.10;4.70;;;22.90;99.90;;;;;;5017372;28;20483;-63
2022/06/06 07:14:05;;;;;;;4.67;4.30;;;23.20;99.90;;;;;;5016584;28;20452;-63
2022/06/06 07:16:34;;;;;;;4.40;4.10;;;23.30;99.90;;;;;;5016271;28;20436;-63
2022/06/06 07:19:05;;;;;;;5.93;4.43;;;23.30;99.90;;;;;;5016450;28;20477;-62
2022/06/06 07:21:33;;;;;;;4.37;4.17;;;23.20;99.90;;;;;;5016291;28;20472;-62
2022/06/06 07:24:03;;;;;;;5.30;4.20;;;23.30;99.90;;;;;;5016146;28;20810;-63
2022/06/06 07:26:37;;;;;;;4.50;4.30;;;23.50;99.90;;;;;;5016332;28;20437;-63
2022/06/06 07:29:06;;;;;;;4.50;4.23;;;23.60;99.90;;;;;;5016248;28;20816;-63
2022/06/06 07:31:44;;;;;;;4.23;3.83;;;23.70;99.90;;;;;;5015759;28;20991;-63
2022/06/06 07:34:33;;;;;;;4.17;3.77;;;23.90;99.90;;;;;;5015232;28;20469;-62
2022/06/06 07:37:11;;;;;;;4.33;3.93;;;24.20;99.90;;;;;;5016626;28;20448;-63
2022/06/06 07:39:49;;;;;;;4.10;3.80;;;24.60;99.90;;;;;;5015689;28;20976;-62
2022/06/06 07:42:38;;;;;;;4.50;4.20;;;25.10;99.90;;;;;;5015598;28;20887;-62
2022/06/06 07:45:17;;;;;;;8.30;4.10;;;25.60;99.90;;;;;;5013993;28;20467;-64
2022/06/06 07:48:09;;;;;;;4.43;4.07;;;25.90;99.90;;;;;;5015969;28;20441;-63
2022/06/06 07:50:44;;;;;;;4.63;4.23;;;26.10;99.90;;;;;;5015777;28;20480;-64
2022/06/06 07:53:17;;;;;;;4.30;4.00;;;25.80;99.90;;;;;;5016604;28;20444;-64
2022/06/06 07:55:49;;;;;;;4.70;4.30;;;25.30;99.90;;;;;;5015776;28;20441;-64
2022/06/06 07:58:21;;;;;;;4.40;4.10;;;25.10;99.90;;;;;;5015812;28;20442;-64
2022/06/06 08:00:53;;;;;;;3.90;3.70;;;24.90;99.90;;;;;;5015429;28;20477;-63
2022/06/06 08:03:27;;;;;;;4.47;4.13;;;24.70;99.90;;;;;;5015767;28;20492;-63
2022/06/06 08:06:14;;;;;;;4.53;4.23;;;24.40;99.90;;;;;;5016375;28;20778;-63
2022/06/06 08:09:04;;;;;;;4.07;3.80;;;24.30;99.90;;;;;;5015512;28;20464;-63
2022/06/06 08:11:40;;;;;;;4.17;3.87;;;24.30;99.90;;;;;;5015507;28;20865;-63
2022/06/06 08:14:20;;;;;;;6.87;6.17;;;24.30;99.90;;;;;;5015516;28;20437;-63
2022/06/06 08:16:50;;;;;;;4.40;4.00;;;24.30;99.90;;;;;;5016319;28;20500;-63
2022/06/06 08:19:36;;;;;;;4.33;4.03;;;24.40;99.90;;;;;;5015884;28;20441;-63
2022/06/06 08:22:03;;;;;;;4.07;3.87;;;24.60;99.90;;;;;;5015501;28;20469;-63
2022/06/06 08:24:35;;;;;;;3.57;3.33;;;24.80;99.90;;;;;;5015011;28;20437;-64
2022/06/06 08:27:06;;;;;;;4.67;4.17;;;25.20;99.90;;;;;;5015078;28;20448;-64
2022/06/06 08:29:36;;;;;;;4.27;4.03;;;25.60;99.90;;;;;;5015176;28;20444;-64
2022/06/06 08:32:05;;;;;;;6.90;4.40;;;26.00;99.90;;;;;;5015094;28;20473;-64
2022/06/06 08:34:33;;;;;;;3.10;3.00;;;26.50;99.90;;;;;;5015146;28;20453;-64
2022/06/06 08:37:13;;;;;;;3.93;3.70;;;27.20;99.90;;;;;;5015006;28;20452;-64
2022/06/06 08:39:47;;;;;;;3.73;3.53;;;27.50;99.90;;;;;;5014785;28;20468;-64
2022/06/06 08:42:30;;;;;;;3.80;3.37;;;27.90;99.90;;;;;;5015086;28;20472;-64
2022/06/06 08:45:22;;;;;;;3.03;2.87;;;28.30;99.90;;;;;;5014591;28;20441;-64
2022/06/06 08:48:02;;;;;;;4.10;3.80;;;28.70;99.90;;;;;;5014645;28;20491;-64
2022/06/06 08:51:00;;;;;;;4.20;4.00;;;29.10;99.90;;;;;;5014867;28;20433;-65
2022/06/06 08:54:00;;;;;;;3.37;2.77;;;29.60;99.90;;;;;;5014031;28;20457;-64
2022/06/06 08:56:40;;;;;;;2.73;2.63;;;30.40;97.80;;;;;;5015182;28;20436;-65
2022/06/06 08:59:48;;;;;;;4.63;3.00;;;31.10;95.40;;;;;;5015004;28;20470;-65
2022/06/06 09:02:48;;;;;;;4.00;3.20;;;31.70;93.50;;;;;;4994438;28;20535;-65
2022/06/06 09:05:46;;;;;;;3.13;2.93;;;31.70;90.00;;;;;;5014542;28;20440;-65
2022/06/06 09:09:00;;;;;;;2.90;2.80;;;31.30;89.60;;;;;;5014586;28;20437;-70
2022/06/06 09:12:03;;;;;;;3.70;2.80;;;30.90;91.00;;;;;;5014429;28;20479;-67
2022/06/06 09:15:05;;;;;;;3.17;2.87;;;30.60;87.10;;;;;;5014580;28;20441;-67
2022/06/06 09:18:08;;;;;;;5.97;5.50;;;29.90;87.30;;;;;;5014947;28;20519;-66
2022/06/06 09:20:48;;;;;;;3.10;2.97;;;29.30;88.40;;;;;;5013989;28;20484;-66
2022/06/06 09:23:53;;;;;;;3.60;3.30;;;28.80;90.10;;;;;;5014221;28;20491;-64
2022/06/06 09:26:25;;;;;;;3.00;2.80;;;28.70;92.00;;;;;;5013976;28;20912;-64
2022/06/06 09:29:27;;;;;;;3.50;2.73;;;28.70;91.70;;;;;;5014316;28;20433;-66
2022/06/06 09:32:19;;;;;;;4.77;3.40;;;28.70;91.50;;;;;;5014200;28;20518;-63
2022/06/06 09:35:26;;;;;;;2.43;2.33;;;28.70;91.50;;;;;;5014198;28;20440;-64
2022/06/06 09:38:13;;;;;;;3.80;2.40;;;29.20;91.80;;;;;;4972870;28;20443;-64
2022/06/06 09:40:59;;;;;;;2.60;2.37;;;29.90;89.40;;;;;;5013164;28;20484;-64
2022/06/06 09:43:55;;;;;;;2.40;2.20;;;30.60;79.50;;;;;;5014211;28;20508;-64
2022/06/06 09:46:51;;;;;;;2.90;2.20;;;31.30;87.90;;;;;;5014033;28;20444;-64
2022/06/06 09:49:54;;;;;;;2.27;2.17;;;32.00;76.30;;;;;;5014075;28;20441;-70
2022/06/06 09:52:50;;;;;;;2.20;2.10;;;32.40;70.80;;;;;;5013623;28;20987;-64
2022/06/06 09:59:34;;;;;;;2.13;1.93;;;32.70;69.10;;;;;;5018200;28;20831;-63
2022/06/06 10:02:33;;;;;;;3.67;2.57;;;33.10;66.00;;;;;;4976245;28;20488;-63
2022/06/06 10:05:40;;;;;;;1.90;1.80;;;33.20;60.60;;;;;;4976643;28;20446;-63
2022/06/06 10:08:52;;;;;;;2.00;1.90;;;32.90;60.60;;;;;;5014918;28;20814;-63
2022/06/06 10:11:53;;;;;;;2.00;1.80;;;32.50;61.50;;;;;;5017754;28;20472;-63
2022/06/06 10:14:40;;;;;;;3.00;1.93;;;32.40;60.00;;;;;;5018152;28;20429;-63
2022/06/06 10:17:21;;;;;;;2.50;2.40;;;32.10;63.70;;;;;;5017952;28;20931;-63
2022/06/06 10:20:04;;;;;;;8.07;7.10;;;32.20;63.80;;;;;;5017541;28;20437;-63
2022/06/06 10:22:41;;;;;;;2.10;2.00;;;32.50;64.70;;;;;;5017221;28;20495;-63
2022/06/06 10:25:29;;;;;;;2.13;2.03;;;32.80;60.60;;;;;;5017119;28;20449;-63
2022/06/06 10:28:25;;;;;;;2.40;2.07;;;32.90;59.40;;;;;;5017157;28;20778;-64
2022/06/06 10:31:04;;;;;;;3.60;2.37;;;32.60;58.80;;;;;;5017420;28;20480;-63
2022/06/06 10:33:58;;;;;;;3.33;3.13;;;32.20;60.80;;;;;;5017740;28;20447;-63
2022/06/06 10:36:46;;;;;;;2.57;2.20;;;31.20;59.90;;;;;;5017942;28;20440;-64
2022/06/06 10:39:44;;;;;;;2.20;2.10;;;30.10;62.20;;;;;;5017576;28;20469;-63
2022/06/06 10:42:32;;;;;;;3.43;1.80;;;29.60;66.20;;;;;;5017257;28;20972;-63
2022/06/06 10:45:18;;;;;;;2.17;2.07;;;29.50;71.90;;;;;;5010174;28;20452;-62
2022/06/06 10:48:07;;;;;;;3.10;2.80;;;29.40;72.50;;;;;;5017070;28;20883;-63
2022/06/06 10:53:45;;;;;;;2.87;2.77;;;29.30;75.90;;;;;;5019711;28;20444;-64
2022/06/06 10:56:39;;;;;;;2.30;2.20;;;29.50;78.10;;;;;;5027852;28;20444;-65
2022/06/06 10:59:36;;;;;;;2.67;2.30;;;29.50;77.70;;;;;;5018066;28;20452;-64
2022/06/06 11:02:31;;;;;;;4.57;2.53;;;29.60;76.40;;;;;;5016424;28;20495;-64
2022/06/06 11:05:29;;;;;;;2.20;2.10;;;29.60;76.00;;;;;;5016692;28;20507;-64
2022/06/06 11:08:23;;;;;;;2.57;2.17;;;29.90;75.70;;;;;;4995990;28;20453;-63
2022/06/06 11:11:13;;;;;;;3.03;2.10;;;29.70;73.50;;;;;;5007847;28;20469;-63
2022/06/06 11:13:49;;;;;;;2.23;2.13;;;29.60;74.00;;;;;;5016640;28;20436;-66
2022/06/06 11:16:38;;;;;;;2.47;2.30;;;29.10;71.70;;;;;;5016564;28;20798;-64
2022/06/06 11:19:44;;;;;;;2.30;2.03;;;28.90;73.50;;;;;;5016691;28;20845;-64
2022/06/06 11:22:26;;;;;;;2.40;2.30;;;28.90;77.70;;;;;;5017227;28;20484;-63
2022/06/06 11:25:02;;;;;;;2.47;2.27;;;29.30;81.20;;;;;;5016431;28;20507;-64
2022/06/06 11:28:01;;;;;;;2.67;2.50;;;29.50;75.50;;;;;;5016124;28;20452;-63
2022/06/06 11:30:55;;;;;;;2.50;2.40;;;29.30;73.90;;;;;;5016028;28;20999;-63
2022/06/06 11:34:11;;;;;;;2.40;2.23;;;29.10;72.70;;;;;;5016389;28;20438;-63
2022/06/06 11:37:26;;;;;;;3.17;2.17;;;28.70;75.20;;;;;;4974767;28;20450;-63
2022/06/06 11:40:22;;;;;;;2.40;2.30;;;28.40;73.90;;;;;;5016937;28;20453;-63
2022/06/06 11:43:18;;;;;;;2.30;2.10;;;28.10;76.20;;;;;;5016047;28;20433;-63
2022/06/06 11:46:18;;;;;;;2.20;2.10;;;27.90;76.90;;;;;;5016128;28;20433;-64
2022/06/06 11:49:15;;;;;;;3.33;2.70;;;28.10;83.10;;;;;;5015959;28;20452;-64
2022/06/06 11:52:16;;;;;;;2.27;2.17;;;28.30;82.00;;;;;;5016089;28;20498;-63
2022/06/06 11:55:25;;;;;;;2.10;2.00;;;28.30;73.00;;;;;;5021369;28;20444;-64
2022/06/06 11:58:35;;;;;;;2.40;2.30;;;28.30;74.80;;;;;;4995217;28;20483;-64
2022/06/06 12:01:34;;;;;;;2.20;2.10;;;28.30;78.50;;;;;;5015711;28;20491;-64
2022/06/06 12:04:33;;;;;;;2.10;2.00;;;28.30;79.60;;;;;;5015610;28;20916;-65
2022/06/06 12:07:33;;;;;;;3.20;3.00;;;28.20;77.00;;;;;;5016035;28;20816;-64
2022/06/06 12:10:06;;;;;;;2.67;2.47;;;28.00;76.50;;;;;;5015756;28;20624;-64
2022/06/06 12:12:56;;;;;;;2.80;2.60;;;27.70;79.20;;;;;;5015552;28;20468;-64
2022/06/06 12:15:52;;;;;;;2.20;2.00;;;27.30;78.00;;;;;;5015428;28;20896;-65
2022/06/06 12:18:57;;;;;;;2.10;2.00;;;27.00;75.70;;;;;;5021889;28;20541;-65
2022/06/06 12:21:53;;;;;;;2.13;2.03;;;26.70;77.30;;;;;;5021257;28;20477;-65
2022/06/06 12:24:39;;;;;;;2.20;2.00;;;26.50;77.30;;;;;;5015892;28;20480;-64
2022/06/06 12:27:19;;;;;;;4.53;2.40;;;26.20;78.70;;;;;;5015761;28;20901;-64
2022/06/06 12:30:24;;;;;;;2.23;2.13;;;26.00;79.90;;;;;;5017007;28;20429;-63
2022/06/06 12:33:01;;;;;;;2.50;2.40;;;25.80;81.60;;;;;;5015841;28;20433;-64
2022/06/06 12:35:40;;;;;;;2.57;2.47;;;25.80;85.20;;;;;;5015234;28;20437;-63
2022/06/06 12:38:17;;;;;;;2.63;2.40;;;25.90;86.60;;;;;;5015461;28;20440;-62
2022/06/06 12:40:57;;;;;;;2.00;1.80;;;26.00;85.30;;;;;;5014786;28;20979;-63
2022/06/06 12:43:34;;;;;;;5.07;3.00;;;26.20;87.60;;;;;;5015151;28;20452;-63
2022/06/06 12:46:15;;;;;;;9.07;2.80;;;26.50;86.80;;;;;;5015009;28;20436;-63
2022/06/06 12:49:11;;;;;;;2.27;1.80;;;26.80;84.10;;;;;;5015131;28;20444;-62
2022/06/06 12:51:52;;;;;;;3.97;3.67;;;27.00;79.10;;;;;;5015106;28;20980;-63
2022/06/06 12:57:53;;;;;;;3.43;2.57;;;27.10;81.40;;;;;;5014854;28;20444;-63
2022/06/06 13:01:37;;;;;;;2.30;2.20;;;27.10;80.10;;;;;;5014509;28;20510;-64
2022/06/06 13:03:24;;;;;;;2.17;2.07;;;27.10;78.40;;;;;;5014362;28;20449;-64
2022/06/06 13:06:00;;;;;;;2.57;2.33;;;27.00;81.60;;;;;;5014636;28;20441;-64
2022/06/06 13:08:50;;;;;;;2.40;2.30;;;27.00;80.60;;;;;;5015014;28;20451;-64
2022/06/06 13:11:48;;;;;;;2.20;2.10;;;26.80;80.10;;;;;;5014446;28;20469;-63
2022/06/06 13:14:36;;;;;;;1.90;1.80;;;26.60;79.80;;;;;;5014478;28;20491;-63
2022/06/06 13:17:17;;;;;;;2.33;2.23;;;26.50;81.50;;;;;;5014218;28;20456;-63
2022/06/06 13:20:07;;;;;;;2.60;1.97;;;26.30;81.30;;;;;;5014322;28;20433;-62
2022/06/06 13:22:52;;;;;;;2.60;2.50;;;26.10;81.50;;;;;;5014384;28;20487;-63
2022/06/06 13:25:32;;;;;;;1.80;1.70;;;26.00;81.90;;;;;;5014236;28;21003;-63
2022/06/06 13:28:01;;;;;;;2.53;2.30;;;25.70;81.10;;;;;;5014447;28;20440;-62
2022/06/06 13:30:34;;;;;;;2.10;1.80;;;25.50;81.60;;;;;;5014201;28;20463;-64
2022/06/06 13:33:20;;;;;;;1.60;1.50;;;25.10;77.50;;;;;;5014066;28;20479;-63
2022/06/06 13:36:02;;;;;;;2.07;1.97;;;24.80;79.00;;;;;;5014113;28;20449;-63
2022/06/06 13:38:58;;;;;;;1.80;1.70;;;24.60;78.80;;;;;;5014510;28;20445;-63
2022/06/06 13:41:42;;;;;;;1.87;1.77;;;24.50;77.10;;;;;;5013719;28;20485;-63
2022/06/06 13:44:34;;;;;;;2.00;1.90;;;24.50;78.60;;;;;;5014129;28;20795;-61
2022/06/06 13:47:13;;;;;;;1.97;1.87;;;24.50;77.40;;;;;;5013803;28;20901;-63
2022/06/06 13:50:02;;;;;;;2.07;1.90;;;24.30;78.00;;;;;;5014013;28;20437;-63
2022/06/06 13:52:53;;;;;;;2.00;1.90;;;24.20;77.90;;;;;;5013941;28;20504;-61
2022/06/06 13:55:27;;;;;;;2.63;2.43;;;24.10;78.30;;;;;;5013693;28;20904;-61
2022/06/06 13:58:05;;;;;;;2.30;1.70;;;23.90;79.70;;;;;;5013944;28;20447;-62
2022/06/06 14:00:39;;;;;;;2.17;2.07;;;23.80;81.10;;;;;;5013314;28;20441;-62
2022/06/06 14:03:32;;;;;;;2.07;1.97;;;23.70;81.90;;;;;;5013768;28;20452;-61
2022/06/06 14:06:35;;;;;;;2.27;2.10;;;23.60;81.40;;;;;;5013850;28;20446;-61
2022/06/06 14:09:03;;;;;;;3.03;2.20;;;23.60;83.30;;;;;;5013700;28;20456;-62
2022/06/06 14:12:06;;;;;;;4.83;2.07;;;23.50;83.50;;;;;;5013623;28;20839;-62
2022/06/06 14:14:35;;;;;;;1.83;1.73;;;23.60;86.20;;;;;;5005347;28;20543;-62
2022/06/06 14:17:04;;;;;;;1.97;1.93;;;23.60;87.10;;;;;;5013899;28;20453;-62
2022/06/06 14:19:37;;;;;;;2.17;2.07;;;23.50;87.40;;;;;;5013892;28;20460;-62
2022/06/06 14:22:06;;;;;;;2.30;2.10;;;23.50;87.70;;;;;;5014090;28;20481;-62
2022/06/06 14:24:35;;;;;;;1.80;1.70;;;23.50;86.10;;;;;;5013900;28;20480;-62
2022/06/06 14:27:06;;;;;;;2.27;2.17;;;23.50;85.70;;;;;;5014315;28;20453;-63
2022/06/06 14:29:34;;;;;;;2.10;1.90;;;23.50;86.70;;;;;;5013320;28;20780;-63
2022/06/06 14:32:04;;;;;;;2.27;2.07;;;23.50;89.00;;;;;;5013634;28;20873;-63
2022/06/06 14:34:38;;;;;;;1.80;1.70;;;23.50;87.20;;;;;;5013923;28;20808;-63
2022/06/06 14:37:12;;;;;;;2.60;2.43;;;23.50;89.10;;;;;;5013677;28;20801;-63
2022/06/06 14:39:42;;;;;;;2.60;2.50;;;23.50;89.00;;;;;;5013725;28;20442;-63
2022/06/06 14:42:12;;;;;;;2.70;2.50;;;23.60;90.20;;;;;;5014682;28;20477;-63
2022/06/06 14:44:42;;;;;;;2.37;2.17;;;23.60;90.00;;;;;;5017268;28;20944;-63
2022/06/06 14:47:13;;;;;;;2.10;2.00;;;23.70;90.40;;;;;;5017267;28;20460;-63
2022/06/06 14:49:43;;;;;;;2.70;2.50;;;23.80;88.30;;;;;;5017415;28;20441;-63
2022/06/06 14:52:17;;;;;;;2.43;2.23;;;23.90;87.50;;;;;;5017141;28;21002;-63
2022/06/06 14:54:50;;;;;;;2.30;2.10;;;23.90;89.90;;;;;;5017384;28;20438;-63
2022/06/06 14:57:18;;;;;;;2.30;2.20;;;24.10;88.40;;;;;;5017570;28;20444;-63
2022/06/06 14:59:50;;;;;;;3.50;2.30;;;24.20;87.60;;;;;;5016885;28;20460;-63
2022/06/06 15:02:21;;;;;;;2.03;1.80;;;24.40;89.70;;;;;;5016708;28;20606;-63
2022/06/06 15:04:49;;;;;;;2.77;1.90;;;24.50;88.30;;;;;;5017552;28;20445;-63
2022/06/06 15:07:21;;;;;;;2.40;2.20;;;24.60;86.70;;;;;;5017362;28;20459;-63
2022/06/06 15:09:54;;;;;;;2.70;2.00;;;24.80;88.60;;;;;;5017569;28;20532;-63
2022/06/06 15:12:25;;;;;;;2.00;1.90;;;24.90;85.60;;;;;;5017287;28;20476;-63
2022/06/06 15:14:55;;;;;;;4.10;2.50;;;25.10;88.10;;;;;;5016888;28;20459;-63
2022/06/06 15:17:22;;;;;;;2.10;1.83;;;25.10;84.90;;;;;;5019740;28;20452;-64
2022/06/06 15:19:53;;;;;;;2.20;2.10;;;25.10;87.10;;;;;;5024229;28;20560;-63
2022/06/06 15:22:24;;;;;;;2.03;1.93;;;25.00;85.30;;;;;;5021221;28;20480;-63
2022/06/06 15:24:51;;;;;;;2.30;2.20;;;24.90;87.20;;;;;;5017032;28;20449;-63
2022/06/06 15:27:55;;;;;;;2.23;1.93;;;24.70;88.40;;;;;;5016805;28;20456;-63
2022/06/06 15:30:27;;;;;;;2.47;2.10;;;24.60;88.40;;;;;;5016396;28;20460;-63
2022/06/06 15:33:01;;;;;;;3.30;1.90;;;24.40;88.00;;;;;;5016714;28;20438;-63
2022/06/06 15:35:38;;;;;;;1.93;1.83;;;24.20;90.30;;;;;;5016618;28;20800;-63
2022/06/06 15:38:40;;;;;;;1.97;1.87;;;24.10;91.00;;;;;;5016571;28;20437;-63
2022/06/06 15:41:16;;;;;;;2.10;2.00;;;24.00;90.50;;;;;;5016424;28;20472;-63
2022/06/06 15:43:54;;;;;;;2.83;2.63;;;23.80;90.70;;;;;;5016459;28;20444;-63
2022/06/06 15:46:35;;;;;;;2.57;2.47;;;23.70;91.00;;;;;;5015758;28;20964;-63
2022/06/06 15:49:12;;;;;;;3.87;2.90;;;23.60;91.30;;;;;;5016030;28;20442;-63
2022/06/06 15:51:48;;;;;;;2.30;2.20;;;23.60;91.80;;;;;;5015870;28;20869;-63
2022/06/06 15:54:42;;;;;;;2.27;2.17;;;23.60;93.50;;;;;;5014987;28;20444;-63
2022/06/06 15:57:16;;;;;;;2.20;2.10;;;23.60;92.70;;;;;;5016009;28;20489;-64
2022/06/06 16:00:21;;;;;;;2.83;2.63;;;23.60;92.10;;;;;;5015961;28;20443;-64
2022/06/06 16:03:14;;;;;;;2.57;2.37;;;23.60;91.70;;;;;;5016072;28;20461;-64
2022/06/06 16:05:44;;;;;;;2.43;2.33;;;23.40;91.90;;;;;;5013728;28;20460;-64
2022/06/06 16:08:39;;;;;;;3.20;2.87;;;23.40;91.90;;;;;;5015998;28;20461;-64
2022/06/06 16:11:19;;;;;;;3.00;2.80;;;23.40;92.80;;;;;;4998114;28;20487;-64
2022/06/06 16:13:59;;;;;;;2.93;2.70;;;23.40;92.70;;;;;;5022348;28;20448;-65
2022/06/06 16:16:30;;;;;;;2.87;2.77;;;23.40;93.70;;;;;;5030374;28;20448;-63
2022/06/06 16:19:01;;;;;;;2.90;2.70;;;23.30;93.60;;;;;;5028721;28;20532;-64
2022/06/06 16:21:40;;;;;;;3.30;3.20;;;23.20;93.20;;;;;;5027285;28;20484;-65
2022/06/06 16:24:14;;;;;;;2.90;2.50;;;23.20;94.10;;;;;;5022548;28;20448;-64
2022/06/06 16:26:46;;;;;;;3.27;3.10;;;23.10;94.40;;;;;;5016930;28;20811;-64
2022/06/06 16:29:19;;;;;;;3.27;2.90;;;23.10;95.10;;;;;;5016780;28;20437;-64
2022/06/06 16:31:51;;;;;;;3.07;2.87;;;23.00;95.50;;;;;;5015475;28;20481;-63
2022/06/06 16:34:27;;;;;;;4.20;3.13;;;23.00;95.90;;;;;;5015285;28;20437;-64
2022/06/06 16:37:00;;;;;;;2.70;2.50;;;22.90;96.00;;;;;;5015291;28;20948;-63
2022/06/06 16:39:31;;;;;;;3.37;3.17;;;22.90;96.60;;;;;;5015116;28;20487;-65
2022/06/06 16:48:19;;;;;;;3.87;2.40;;;22.80;96.50;;;;;;5016223;28;20478;-64
2022/06/06 16:51:15;;;;;;;2.90;2.70;;;22.70;95.80;;;;;;5015873;28;20515;-63
2022/06/06 16:54:14;;;;;;;3.20;2.37;;;22.70;96.40;;;;;;5012919;28;20820;-64
2022/06/06 16:56:54;;;;;;;3.20;2.80;;;22.80;96.90;;;;;;5014710;28;20433;-64
2022/06/06 16:59:32;;;;;;;2.53;2.33;;;22.80;96.90;;;;;;5014604;28;20437;-64
2022/06/06 17:02:19;;;;;;;4.00;2.47;;;22.80;97.40;;;;;;5014324;28;20480;-64
2022/06/06 17:04:52;;;;;;;2.10;1.90;;;22.90;97.10;;;;;;5014747;28;20807;-66
2022/06/06 17:07:49;;;;;;;2.83;2.50;;;22.90;97.40;;;;;;5014480;28;20429;-64
2022/06/06 17:10:38;;;;;;;4.30;2.67;;;22.90;97.00;;;;;;5014703;28;20437;-63
2022/06/06 17:13:21;;;;;;;3.57;2.40;;;22.80;96.90;;;;;;5014891;28;20433;-64
2022/06/06 17:15:47;;;;;;;2.50;2.40;;;22.70;96.90;;;;;;5014966;28;20433;-63
2022/06/06 17:18:27;;;;;;;6.20;2.10;;;22.70;96.40;;;;;;5014605;28;20498;-62
2022/06/06 17:21:25;;;;;;;2.30;2.13;;;22.60;97.10;;;;;;5014395;28;20472;-63
2022/06/06 17:23:55;;;;;;;3.40;2.60;;;22.50;96.10;;;;;;5013989;28;20503;-62
2022/06/06 17:26:39;;;;;;;2.30;2.20;;;22.50;96.30;;;;;;5014746;28;20874;-63
2022/06/06 17:29:13;;;;;;;2.53;2.37;;;22.50;97.30;;;;;;5014574;28;20900;-62
2022/06/06 17:32:00;;;;;;;2.07;1.97;;;22.40;96.70;;;;;;5014348;28;20476;-62
2022/06/06 17:34:29;;;;;;;2.00;1.90;;;22.40;96.10;;;;;;5013954;28;20912;-62
2022/06/06 17:37:27;;;;;;;2.03;1.93;;;22.40;97.20;;;;;;5013861;28;21030;-62
2022/06/06 17:39:58;;;;;;;2.30;2.10;;;22.40;97.40;;;;;;5014302;28;20518;-62
2022/06/06 17:42:31;;;;;;;2.40;2.30;;;22.40;97.40;;;;;;5014045;28;20897;-61
2022/06/06 17:45:28;;;;;;;2.70;2.47;;;22.40;98.70;;;;;;5014100;28;20447;-61
2022/06/06 17:48:12;;;;;;;2.43;2.07;;;22.50;99.90;;;;;;4991217;28;20503;-61
2022/06/06 17:50:49;;;;;;;1.90;1.80;;;22.40;97.80;;;;;;5013963;28;20473;-61
2022/06/06 17:53:33;;;;;;;2.03;1.60;;;22.40;96.40;;;;;;5014098;28;20429;-62
2022/06/06 17:56:06;;;;;;;2.30;1.50;;;22.20;96.30;;;;;;5013919;28;20514;-61
2022/06/06 17:58:51;;;;;;;2.60;1.90;;;22.20;96.00;;;;;;5013967;28;20439;-62
2022/06/06 18:01:56;;;;;;;2.20;2.10;;;22.20;96.00;;;;;;5013736;28;20580;-61
2022/06/06 18:05:04;;;;;;;1.90;1.80;;;22.10;98.70;;;;;;5013749;28;20503;-62
2022/06/06 18:08:06;;;;;;;2.10;2.00;;;22.10;99.90;;;;;;4990431;28;20452;-61
2022/06/06 18:10:40;;;;;;;4.20;2.00;;;22.10;98.40;;;;;;5013950;28;20440;-62
2022/06/06 18:13:22;;;;;;;2.07;1.87;;;22.00;98.10;;;;;;5014339;28;20424;-62
2022/06/06 18:15:56;;;;;;;3.00;2.00;;;22.00;97.50;;;;;;5013967;28;20503;-62
2022/06/06 18:18:26;;;;;;;1.80;1.70;;;21.90;97.50;;;;;;5019701;28;20857;-62
2022/06/06 18:20:57;;;;;;;2.03;1.83;;;21.90;98.20;;;;;;5023913;28;20473;-62
2022/06/06 18:23:29;;;;;;;3.03;1.97;;;21.90;99.00;;;;;;5018909;28;20496;-63
2022/06/06 18:26:00;;;;;;;2.00;1.90;;;21.90;99.90;;;;;;5017948;28;20444;-63
2022/06/06 18:28:39;;;;;;;2.00;1.90;;;21.80;98.90;;;;;;5017938;28;20447;-63
2022/06/06 18:31:07;;;;;;;2.50;2.00;;;21.80;98.30;;;;;;5017252;28;21045;-63